Time;durP1;ratioP1;P1;durP2;ratioP2;P2;SDS_P1;SDS_P2;PMS_P1;PMS_P2;Temp;Humidity;BMP_temperature;BMP_pressure;BME280_temperature;BME280_humidity;BME280_pressure;Samples;Min_cycle;Max_cycle;Signal;HPM_P1;HPM_P2
2023/07/06 00:00:37;;;;;;;18.03;16.17;;;25.50;99.90;;;;;;5065150;28;20414;-76
2023/07/06 00:03:03;;;;;;;18.83;16.80;;;25.40;99.90;;;;;;5064937;28;20484;-78
2023/07/06 00:05:29;;;;;;;20.00;15.57;;;25.50;99.90;;;;;;5065146;28;20192;-76
2023/07/06 00:07:56;;;;;;;17.60;15.20;;;25.40;99.90;;;;;;5068105;28;20406;-82
2023/07/06 00:10:22;;;;;;;20.77;15.57;;;25.50;99.90;;;;;;5068575;28;20422;-76
2023/07/06 00:12:48;;;;;;;18.70;16.20;;;25.50;99.90;;;;;;5070797;28;20583;-77
2023/07/06 00:15:14;;;;;;;19.00;16.20;;;25.50;99.90;;;;;;5070362;28;20441;-76
2023/07/06 00:17:40;;;;;;;18.80;16.70;;;25.40;99.90;;;;;;5068112;28;20275;-76
2023/07/06 00:20:10;;;;;;;20.40;15.40;;;25.40;99.90;;;;;;5068281;28;20242;-82
2023/07/06 00:22:36;;;;;;;18.93;16.90;;;25.40;99.90;;;;;;5070305;28;20713;-76
2023/07/06 00:25:03;;;;;;;19.73;16.47;;;25.40;99.90;;;;;;5070016;28;20560;-76
2023/07/06 00:27:29;;;;;;;18.20;16.17;;;25.40;99.90;;;;;;5070257;28;20475;-82
2023/07/06 00:30:15;;;;;;;20.37;16.57;;;25.30;99.90;;;;;;5069623;28;20539;-76
2023/07/06 00:32:41;;;;;;;18.17;15.77;;;25.30;99.90;;;;;;5069937;28;20445;-76
2023/07/06 00:35:10;;;;;;;18.70;16.70;;;25.20;99.90;;;;;;5069976;28;20422;-82
2023/07/06 00:37:38;;;;;;;20.73;16.00;;;25.20;99.90;;;;;;5068468;28;20448;-76
2023/07/06 00:40:12;;;;;;;21.03;16.37;;;25.20;99.90;;;;;;5069919;28;21136;-82
2023/07/06 00:42:39;;;;;;;18.53;15.90;;;25.10;99.90;;;;;;5068848;28;20432;-82
2023/07/06 00:45:09;;;;;;;18.13;16.30;;;25.00;99.90;;;;;;5069871;28;20422;-76
2023/07/06 00:47:44;;;;;;;23.13;17.23;;;25.00;99.90;;;;;;5068770;28;20645;-82
2023/07/06 00:50:13;;;;;;;17.37;15.50;;;25.00;99.90;;;;;;5068178;28;20432;-76
2023/07/06 00:52:44;;;;;;;21.50;16.10;;;24.90;99.90;;;;;;5070047;28;20503;-81
2023/07/06 00:55:12;;;;;;;18.97;16.80;;;24.80;99.90;;;;;;5067741;28;20795;-76
2023/07/06 00:57:40;;;;;;;18.47;16.57;;;24.70;99.90;;;;;;5068232;28;20449;-76
2023/07/06 01:00:07;;;;;;;19.00;16.83;;;24.70;99.90;;;;;;5067845;28;20428;-81
2023/07/06 01:02:39;;;;;;;19.83;16.47;;;24.70;99.90;;;;;;5068600;28;20480;-80
2023/07/06 01:05:08;;;;;;;21.90;17.23;;;24.60;99.90;;;;;;5067836;28;20847;-76
2023/07/06 01:07:36;;;;;;;18.57;16.37;;;24.60;99.90;;;;;;5068251;28;20441;-82
2023/07/06 01:10:04;;;;;;;20.50;18.23;;;24.60;99.90;;;;;;5068892;28;20420;-75
2023/07/06 01:12:30;;;;;;;21.50;17.30;;;24.50;99.90;;;;;;5067991;28;21013;-76
2023/07/06 01:14:56;;;;;;;18.20;16.40;;;24.50;99.90;;;;;;5068728;28;20563;-76
2023/07/06 01:17:29;;;;;;;19.80;17.20;;;24.50;99.90;;;;;;5068106;28;20894;-76
2023/07/06 01:20:21;;;;;;;19.83;17.67;;;24.50;99.90;;;;;;5067836;28;20223;-76
2023/07/06 01:23:25;;;;;;;19.00;16.80;;;24.40;99.90;;;;;;5067312;28;20444;-82
2023/07/06 01:26:09;;;;;;;20.77;16.30;;;24.40;99.90;;;;;;5068653;28;20494;-82
2023/07/06 01:28:54;;;;;;;18.10;15.50;;;24.40;99.90;;;;;;5068898;28;20425;-81
2023/07/06 01:31:36;;;;;;;20.17;17.47;;;24.40;99.90;;;;;;5067799;28;20916;-75
2023/07/06 01:34:20;;;;;;;20.83;16.73;;;24.40;99.90;;;;;;5068735;28;21075;-76
2023/07/06 01:36:55;;;;;;;19.53;17.63;;;24.40;99.90;;;;;;5067232;28;20431;-76
2023/07/06 01:39:23;;;;;;;20.80;16.20;;;24.40;99.90;;;;;;5067301;28;20918;-82
2023/07/06 01:42:12;;;;;;;20.50;17.30;;;24.40;99.90;;;;;;5068799;28;20970;-82
2023/07/06 01:44:40;;;;;;;21.13;17.23;;;24.40;99.90;;;;;;5066992;28;20660;-76
2023/07/06 01:47:06;;;;;;;19.63;15.77;;;24.40;99.90;;;;;;5068663;28;20464;-76
2023/07/06 01:49:36;;;;;;;18.27;16.00;;;24.40;99.90;;;;;;5067049;28;20675;-76
2023/07/06 01:52:20;;;;;;;20.47;16.87;;;24.40;99.90;;;;;;5068416;28;20741;-81
2023/07/06 01:54:54;;;;;;;17.73;15.93;;;24.40;99.90;;;;;;5067822;28;20644;-81
2023/07/06 01:57:33;;;;;;;19.40;16.20;;;24.30;99.90;;;;;;5068816;28;20491;-76
2023/07/06 02:00:05;;;;;;;20.23;15.23;;;24.30;99.90;;;;;;5068320;28;21040;-76
2023/07/06 02:02:32;;;;;;;16.60;14.90;;;24.20;99.90;;;;;;5067928;28;20462;-82
2023/07/06 02:05:00;;;;;;;18.50;15.67;;;24.20;99.90;;;;;;5066302;28;20443;-81
2023/07/06 02:07:27;;;;;;;16.63;14.90;;;24.20;99.90;;;;;;5068307;28;20436;-75
2023/07/06 02:09:54;;;;;;;19.93;16.23;;;24.10;99.90;;;;;;5067641;28;20854;-82
2023/07/06 02:12:20;;;;;;;17.60;15.37;;;24.10;99.90;;;;;;5068202;28;20489;-76
2023/07/06 02:14:48;;;;;;;19.20;17.20;;;24.10;99.90;;;;;;5067959;28;21106;-76
2023/07/06 02:17:15;;;;;;;20.30;17.33;;;24.10;99.90;;;;;;5066677;28;20444;-82
2023/07/06 02:19:43;;;;;;;19.90;16.10;;;24.10;99.90;;;;;;5066357;28;20478;-82
2023/07/06 02:22:09;;;;;;;18.53;16.40;;;24.10;99.90;;;;;;5066905;28;20933;-76
2023/07/06 02:24:36;;;;;;;19.63;17.63;;;24.10;99.90;;;;;;5067142;28;20431;-82
2023/07/06 02:27:02;;;;;;;21.10;16.53;;;24.10;99.90;;;;;;5066341;28;20433;-82
2023/07/06 02:29:27;;;;;;;19.70;16.37;;;24.10;99.90;;;;;;5067591;28;20848;-76
2023/07/06 02:31:53;;;;;;;19.00;17.00;;;24.00;99.90;;;;;;5065591;28;20800;-76
2023/07/06 02:34:24;;;;;;;20.30;16.53;;;24.00;99.90;;;;;;5067391;28;20229;-81
2023/07/06 02:36:51;;;;;;;21.97;18.53;;;24.00;99.90;;;;;;5067442;28;20297;-82
2023/07/06 02:39:19;;;;;;;22.77;18.10;;;23.90;99.90;;;;;;5066301;28;20494;-82
2023/07/06 02:41:45;;;;;;;18.77;16.40;;;24.00;99.90;;;;;;5065925;28;20972;-76
2023/07/06 02:44:10;;;;;;;19.27;16.63;;;23.90;99.90;;;;;;5065697;28;20936;-76
2023/07/06 02:46:36;;;;;;;19.73;16.03;;;23.90;99.90;;;;;;5066138;28;20494;-82
2023/07/06 02:49:03;;;;;;;18.67;16.67;;;23.90;99.90;;;;;;5067434;28;20472;-81
2023/07/06 02:51:32;;;;;;;20.90;17.20;;;23.90;99.90;;;;;;5067675;28;20545;-81
2023/07/06 02:53:58;;;;;;;19.63;17.03;;;24.00;99.90;;;;;;5065529;28;20544;-76
2023/07/06 02:56:26;;;;;;;18.77;16.63;;;24.00;99.90;;;;;;5065986;28;21046;-82
2023/07/06 02:58:52;;;;;;;21.37;17.70;;;24.00;99.90;;;;;;5067110;28;20173;-76
2023/07/06 03:01:18;;;;;;;20.10;17.10;;;24.10;99.90;;;;;;5067390;28;20950;-76
2023/07/06 03:03:44;;;;;;;21.10;17.90;;;24.10;99.90;;;;;;5064859;28;20487;-81
2023/07/06 03:06:12;;;;;;;24.83;16.17;;;24.00;99.90;;;;;;5065750;28;20191;-82
2023/07/06 03:08:38;;;;;;;18.47;16.53;;;24.00;99.90;;;;;;5067597;28;20240;-76
2023/07/06 03:11:04;;;;;;;21.20;17.57;;;24.00;99.90;;;;;;5065417;28;20535;-81
2023/07/06 03:13:31;;;;;;;21.33;17.10;;;24.00;99.90;;;;;;5067026;28;20547;-82
2023/07/06 03:15:58;;;;;;;19.70;17.60;;;24.00;99.90;;;;;;5067078;28;21154;-81
2023/07/06 03:18:25;;;;;;;19.97;17.80;;;24.00;99.90;;;;;;5065707;28;20516;-82
2023/07/06 03:20:50;;;;;;;20.67;18.00;;;23.90;99.90;;;;;;5065430;28;20523;-81
2023/07/06 03:23:18;;;;;;;19.10;17.10;;;23.90;99.90;;;;;;5065310;28;20721;-82
2023/07/06 03:25:43;;;;;;;20.60;18.20;;;23.90;99.90;;;;;;5064747;28;20180;-75
2023/07/06 03:28:09;;;;;;;18.80;16.47;;;24.00;99.90;;;;;;5065948;28;20427;-80
2023/07/06 03:30:35;;;;;;;22.20;18.13;;;24.00;99.90;;;;;;5067145;28;20180;-76
2023/07/06 03:33:01;;;;;;;21.63;17.67;;;24.00;99.90;;;;;;5067181;28;20400;-82
2023/07/06 03:35:28;;;;;;;19.97;17.70;;;24.00;99.90;;;;;;5066926;28;20183;-76
2023/07/06 03:37:58;;;;;;;19.03;17.13;;;24.00;99.90;;;;;;5064951;28;20181;-76
2023/07/06 03:40:29;;;;;;;19.93;17.93;;;24.00;99.90;;;;;;5066906;28;20528;-82
2023/07/06 03:42:56;;;;;;;20.70;16.97;;;24.00;99.90;;;;;;5067673;28;20754;-82
2023/07/06 03:45:22;;;;;;;500.20;301.17;;;24.00;99.90;;;;;;5069220;28;20454;-82
2023/07/06 03:47:50;;;;;;;82.90;65.90;;;24.00;99.90;;;;;;5069273;28;20482;-82
2023/07/06 03:50:17;;;;;;;34.63;27.83;;;24.10;99.90;;;;;;5070505;28;20423;-82
2023/07/06 03:52:44;;;;;;;21.53;17.47;;;24.10;99.90;;;;;;5070892;28;20463;-82
2023/07/06 03:55:24;;;;;;;20.00;17.40;;;24.10;99.90;;;;;;5069080;28;20467;-82
2023/07/06 03:57:50;;;;;;;20.60;17.50;;;24.10;99.90;;;;;;5069077;28;20897;-82
2023/07/06 04:00:19;;;;;;;25.23;18.17;;;24.10;99.90;;;;;;5069189;28;20998;-76
2023/07/06 04:02:49;;;;;;;24.53;19.20;;;24.10;99.90;;;;;;5068287;28;21000;-76
2023/07/06 04:05:17;;;;;;;21.20;18.23;;;24.20;99.90;;;;;;5068384;28;20436;-82
2023/07/06 04:07:52;;;;;;;24.93;17.37;;;24.20;99.90;;;;;;5070363;28;20432;-82
2023/07/06 04:10:21;;;;;;;27.17;18.80;;;24.20;99.90;;;;;;5070052;28;20478;-77
2023/07/06 04:12:48;;;;;;;27.20;21.60;;;24.20;99.90;;;;;;5068580;28;21046;-76
2023/07/06 04:15:18;;;;;;;19.93;17.33;;;24.20;99.90;;;;;;5070369;28;20466;-76
2023/07/06 04:17:47;;;;;;;19.23;16.97;;;24.20;99.90;;;;;;5068826;28;20508;-82
2023/07/06 04:20:22;;;;;;;23.60;17.77;;;24.20;99.90;;;;;;5068696;28;20941;-81
2023/07/06 04:22:49;;;;;;;20.00;17.60;;;24.10;99.90;;;;;;5067621;28;20443;-76
2023/07/06 04:25:19;;;;;;;20.70;17.80;;;24.10;99.90;;;;;;5069766;28;20421;-82
2023/07/06 04:27:46;;;;;;;20.60;17.90;;;24.00;99.90;;;;;;5069702;28;20518;-82
2023/07/06 04:30:12;;;;;;;21.00;17.70;;;24.00;99.90;;;;;;5069811;28;20429;-77
2023/07/06 04:32:38;;;;;;;19.83;17.60;;;24.00;99.90;;;;;;5068759;28;20461;-76
2023/07/06 04:35:06;;;;;;;22.60;17.60;;;24.00;99.90;;;;;;5067467;28;20943;-76
2023/07/06 04:37:32;;;;;;;21.43;18.30;;;24.00;99.90;;;;;;5068937;28;20199;-76
2023/07/06 04:39:58;;;;;;;19.40;17.40;;;24.00;99.90;;;;;;5069633;28;20424;-76
2023/07/06 04:42:27;;;;;;;21.50;17.93;;;24.10;99.90;;;;;;5069834;28;20196;-82
2023/07/06 04:44:56;;;;;;;22.60;19.60;;;24.10;99.90;;;;;;5068231;28;20432;-82
2023/07/06 04:47:23;;;;;;;24.27;19.77;;;24.10;99.90;;;;;;5069924;28;20439;-76
2023/07/06 04:49:50;;;;;;;22.87;18.90;;;24.10;99.90;;;;;;5069561;28;20457;-82
2023/07/06 04:52:16;;;;;;;21.47;18.30;;;24.20;99.90;;;;;;5069626;28;20427;-81
2023/07/06 04:54:42;;;;;;;21.77;19.30;;;24.20;99.90;;;;;;5067985;28;21014;-81
2023/07/06 04:57:13;;;;;;;26.60;21.40;;;24.20;99.90;;;;;;5068157;28;20758;-82
2023/07/06 04:59:40;;;;;;;23.63;20.73;;;24.30;99.90;;;;;;5058489;28;20620;-76
2023/07/06 05:02:06;;;;;;;27.57;23.67;;;24.30;99.90;;;;;;5049264;28;20426;-76
2023/07/06 05:04:32;;;;;;;25.30;19.27;;;24.40;99.90;;;;;;5046754;28;20493;-82
2023/07/06 05:06:57;;;;;;;20.80;16.70;;;24.40;99.90;;;;;;5049350;28;20193;-76
2023/07/06 05:09:24;;;;;;;18.60;16.60;;;24.50;99.90;;;;;;5047753;28;20193;-82
2023/07/06 05:11:52;;;;;;;21.13;18.80;;;24.60;99.90;;;;;;5047730;28;20197;-82
2023/07/06 05:14:19;;;;;;;18.53;16.60;;;24.70;99.90;;;;;;5047491;28;20482;-76
2023/07/06 05:16:45;;;;;;;22.77;17.20;;;24.70;99.90;;;;;;5048979;28;20426;-81
2023/07/06 05:19:11;;;;;;;18.93;16.40;;;24.80;99.90;;;;;;5047070;28;20419;-80
2023/07/06 05:21:36;;;;;;;19.50;15.50;;;24.80;99.90;;;;;;5047372;28;20221;-76
2023/07/06 05:24:03;;;;;;;22.13;16.30;;;24.90;99.90;;;;;;5045719;28;20721;-76
2023/07/06 05:26:28;;;;;;;16.30;14.50;;;24.90;99.90;;;;;;5048760;28;20673;-76
2023/07/06 05:28:54;;;;;;;18.90;15.23;;;25.00;99.90;;;;;;5047947;28;20430;-76
2023/07/06 05:31:19;;;;;;;15.90;14.20;;;25.00;99.90;;;;;;5060995;28;20571;-76
2023/07/06 05:33:46;;;;;;;15.40;13.30;;;25.00;99.90;;;;;;5066041;28;20213;-82
2023/07/06 05:36:11;;;;;;;16.90;13.93;;;24.90;99.90;;;;;;5066171;28;20746;-77
2023/07/06 05:38:37;;;;;;;18.30;14.07;;;24.90;99.90;;;;;;5066569;28;20441;-82
2023/07/06 05:41:03;;;;;;;14.70;13.10;;;24.90;99.90;;;;;;5066213;28;20215;-76
2023/07/06 05:43:29;;;;;;;14.37;12.17;;;24.90;99.90;;;;;;5066609;28;20255;-82
2023/07/06 05:45:55;;;;;;;16.17;12.37;;;24.90;99.90;;;;;;5065713;28;20516;-76
2023/07/06 05:48:20;;;;;;;16.43;11.70;;;24.90;99.90;;;;;;5056237;28;20419;-76
2023/07/06 05:50:46;;;;;;;12.40;11.10;;;24.90;99.90;;;;;;5057884;28;20201;-76
2023/07/06 05:53:13;;;;;;;13.50;10.83;;;25.00;99.90;;;;;;5054955;28;20245;-76
2023/07/06 05:55:43;;;;;;;12.33;10.57;;;25.00;99.90;;;;;;5057954;28;20181;-82
2023/07/06 05:58:13;;;;;;;16.87;9.20;;;25.00;99.90;;;;;;5056280;28;20433;-76
2023/07/06 06:00:39;;;;;;;14.10;10.07;;;25.00;99.90;;;;;;5049044;28;20441;-82
2023/07/06 06:03:06;;;;;;;11.37;9.50;;;25.00;99.90;;;;;;5057514;28;20488;-76
2023/07/06 06:05:33;;;;;;;11.37;8.90;;;25.00;99.90;;;;;;5045030;28;20947;-81
2023/07/06 06:08:00;;;;;;;9.20;8.20;;;25.00;99.90;;;;;;5049868;28;20430;-76
2023/07/06 06:10:26;;;;;;;11.43;8.30;;;25.00;99.90;;;;;;5063245;28;20919;-82
2023/07/06 06:12:52;;;;;;;7.97;7.27;;;25.10;99.90;;;;;;5056766;28;20512;-81
2023/07/06 06:15:18;;;;;;;17.80;8.40;;;25.10;99.90;;;;;;5050943;28;20189;-82
2023/07/06 06:17:44;;;;;;;9.73;7.37;;;25.10;99.90;;;;;;5054068;28;20243;-76
2023/07/06 06:20:10;;;;;;;9.30;7.13;;;25.10;99.90;;;;;;5058531;28;20208;-82
2023/07/06 06:22:37;;;;;;;8.20;6.13;;;25.20;99.90;;;;;;5051893;28;20540;-82
2023/07/06 06:25:03;;;;;;;8.70;6.40;;;25.20;99.90;;;;;;5057636;28;20710;-82
2023/07/06 06:27:29;;;;;;;7.87;6.60;;;25.20;99.90;;;;;;5056459;28;20739;-75
2023/07/06 06:29:55;;;;;;;8.23;5.83;;;25.20;99.90;;;;;;5052293;28;20494;-76
2023/07/06 06:32:22;;;;;;;8.30;6.20;;;25.30;99.90;;;;;;5058811;28;20467;-81
2023/07/06 06:34:48;;;;;;;7.13;6.43;;;25.30;99.90;;;;;;5052982;28;20553;-75
2023/07/06 06:37:16;;;;;;;7.00;6.03;;;25.40;99.90;;;;;;5059020;28;20511;-82
2023/07/06 06:39:42;;;;;;;10.70;6.00;;;25.50;99.90;;;;;;5054549;28;20437;-82
2023/07/06 06:42:09;;;;;;;9.43;6.37;;;25.50;99.90;;;;;;5060133;28;20465;-76
2023/07/06 06:44:35;;;;;;;13.10;6.60;;;25.50;99.90;;;;;;5062143;28;20449;-83
2023/07/06 06:47:04;;;;;;;14.17;6.30;;;25.60;99.90;;;;;;5060980;28;20446;-82
2023/07/06 06:49:33;;;;;;;8.83;5.60;;;25.60;99.90;;;;;;5052477;28;20713;-76
2023/07/06 06:52:01;;;;;;;5.77;5.00;;;25.70;99.90;;;;;;5049868;28;20443;-81
2023/07/06 06:54:28;;;;;;;8.33;5.40;;;25.80;99.90;;;;;;5049752;28;21144;-81
2023/07/06 06:56:54;;;;;;;6.07;4.57;;;25.90;99.90;;;;;;5050627;28;20449;-82
2023/07/06 06:59:20;;;;;;;8.20;5.03;;;25.90;99.90;;;;;;5051176;28;20476;-76
2023/07/06 07:01:46;;;;;;;6.50;5.10;;;26.00;99.90;;;;;;5058047;28;20208;-75
2023/07/06 07:04:11;;;;;;;5.57;4.57;;;26.00;99.90;;;;;;5061120;28;20541;-76
2023/07/06 07:06:38;;;;;;;9.10;5.10;;;26.10;99.90;;;;;;5059422;28;20449;-82
2023/07/06 07:09:05;;;;;;;6.20;4.90;;;26.20;99.90;;;;;;5056678;28;20670;-82
2023/07/06 07:11:30;;;;;;;5.73;4.70;;;26.20;99.90;;;;;;5054322;28;20453;-76
2023/07/06 07:13:56;;;;;;;4.77;4.30;;;26.30;99.90;;;;;;5055892;28;20534;-81
2023/07/06 07:16:23;;;;;;;9.67;5.10;;;26.30;99.90;;;;;;5050061;28;20568;-82
2023/07/06 07:18:49;;;;;;;9.30;4.83;;;26.40;99.90;;;;;;5050175;28;20477;-76
2023/07/06 07:21:19;;;;;;;5.90;4.57;;;26.50;99.90;;;;;;5054695;28;20492;-82
2023/07/06 07:23:49;;;;;;;4.70;4.30;;;26.60;99.90;;;;;;5052450;28;20638;-75
2023/07/06 07:26:16;;;;;;;7.70;4.43;;;26.50;99.90;;;;;;5047925;28;20525;-81
2023/07/06 07:28:42;;;;;;;9.77;4.73;;;26.60;99.90;;;;;;5049508;28;20445;-76
2023/07/06 07:31:11;;;;;;;6.73;4.43;;;26.70;99.90;;;;;;5049790;28;20418;-82
2023/07/06 07:33:37;;;;;;;6.80;5.50;;;26.70;99.90;;;;;;5050546;28;20528;-76
2023/07/06 07:36:03;;;;;;;9.80;4.40;;;26.80;99.90;;;;;;5064221;28;20457;-82
2023/07/06 07:38:29;;;;;;;5.90;4.47;;;26.90;99.90;;;;;;5064266;28;20460;-82
2023/07/06 07:40:57;;;;;;;5.87;5.27;;;26.90;99.90;;;;;;5054474;28;20474;-76
2023/07/06 07:43:27;;;;;;;5.30;4.80;;;26.90;99.90;;;;;;5057906;28;20639;-76
2023/07/06 07:45:55;;;;;;;5.27;4.77;;;27.00;99.90;;;;;;5061328;28;20453;-82
2023/07/06 07:48:23;;;;;;;7.10;4.40;;;27.10;99.90;;;;;;5062106;28;20517;-77
2023/07/06 07:50:56;;;;;;;6.00;4.53;;;27.10;99.90;;;;;;5060679;28;20450;-76
2023/07/06 07:53:23;;;;;;;6.00;5.40;;;27.20;99.90;;;;;;5054704;28;20890;-76
2023/07/06 07:55:49;;;;;;;5.93;4.77;;;27.10;99.90;;;;;;5059337;28;20561;-82
2023/07/06 07:58:15;;;;;;;5.07;4.30;;;27.20;99.90;;;;;;5058969;28;20422;-81
2023/07/06 08:00:51;;;;;;;5.67;4.80;;;27.30;99.90;;;;;;5059822;28;20446;-77
2023/07/06 08:03:17;;;;;;;9.60;4.90;;;27.30;99.90;;;;;;5049638;28;20228;-76
2023/07/06 08:05:43;;;;;;;5.30;4.77;;;27.40;99.90;;;;;;5047854;28;20828;-82
2023/07/06 08:08:12;;;;;;;6.13;5.43;;;27.40;99.90;;;;;;5055778;28;20183;-81
2023/07/06 08:10:39;;;;;;;6.43;5.13;;;27.50;99.90;;;;;;5051148;28;20449;-76
2023/07/06 08:13:09;;;;;;;6.40;5.10;;;27.50;99.90;;;;;;5047322;28;20427;-82
2023/07/06 08:15:39;;;;;;;5.77;4.93;;;27.50;99.90;;;;;;5055714;28;20443;-82
2023/07/06 08:18:06;;;;;;;6.30;5.00;;;27.60;99.90;;;;;;5057520;28;20944;-76
2023/07/06 08:20:35;;;;;;;6.60;4.70;;;27.50;99.90;;;;;;5054167;28;20495;-82
2023/07/06 08:23:04;;;;;;;5.97;4.93;;;27.60;99.90;;;;;;5057543;28;20430;-76
2023/07/06 08:25:39;;;;;;;9.17;6.57;;;27.50;99.90;;;;;;5071735;28;20434;-76
2023/07/06 08:28:07;;;;;;;5.90;5.30;;;27.50;99.90;;;;;;5057215;28;20847;-76
2023/07/06 08:30:33;;;;;;;6.63;5.60;;;27.50;99.90;;;;;;5059122;28;20453;-76
2023/07/06 08:33:03;;;;;;;7.40;6.20;;;27.60;99.90;;;;;;5054380;28;20546;-77
2023/07/06 08:35:29;;;;;;;7.37;5.63;;;27.60;99.90;;;;;;5061824;28;20462;-76
2023/07/06 08:37:56;;;;;;;5.83;4.80;;;27.70;99.90;;;;;;5055791;28;20442;-76
2023/07/06 08:40:28;;;;;;;5.60;5.10;;;27.70;99.90;;;;;;5055547;28;20440;-82
2023/07/06 08:42:57;;;;;;;8.83;5.10;;;28.00;99.90;;;;;;5058445;28;20600;-76
2023/07/06 08:45:28;;;;;;;6.47;5.33;;;28.10;99.90;;;;;;5055565;28;20546;-76
2023/07/06 08:47:56;;;;;;;6.87;6.27;;;28.10;99.90;;;;;;5059867;28;20605;-82
2023/07/06 08:50:32;;;;;;;9.60;5.80;;;28.00;99.90;;;;;;5057977;28;20457;-82
2023/07/06 08:52:58;;;;;;;9.03;5.93;;;28.00;99.90;;;;;;5059066;28;20767;-82
2023/07/06 08:55:24;;;;;;;8.27;6.33;;;28.00;99.90;;;;;;5058831;28;20449;-82
2023/07/06 08:57:52;;;;;;;6.30;5.63;;;28.10;99.90;;;;;;5059429;28;20188;-82
2023/07/06 09:00:22;;;;;;;5.30;4.80;;;28.10;99.90;;;;;;5056748;28;20486;-76
2023/07/06 09:02:49;;;;;;;6.47;5.77;;;28.20;99.90;;;;;;5068553;28;21060;-76
2023/07/06 09:05:16;;;;;;;7.40;6.13;;;28.40;99.90;;;;;;5066110;28;20489;-81
2023/07/06 09:07:44;;;;;;;7.60;5.70;;;28.50;99.90;;;;;;5069176;28;20459;-82
2023/07/06 09:10:20;;;;;;;6.27;5.20;;;28.60;99.90;;;;;;5061750;28;20433;-76
2023/07/06 09:12:47;;;;;;;6.33;5.70;;;28.60;99.90;;;;;;5064057;28;20452;-82
2023/07/06 09:15:18;;;;;;;6.17;5.53;;;28.60;99.90;;;;;;5063171;28;20973;-83
2023/07/06 09:17:46;;;;;;;7.10;5.70;;;28.60;99.90;;;;;;5065560;28;20543;-77
2023/07/06 09:20:14;;;;;;;9.90;5.57;;;28.50;99.90;;;;;;5060785;28;20484;-76
2023/07/06 09:22:44;;;;;;;5.70;4.97;;;28.40;99.90;;;;;;5058556;28;20853;-83
2023/07/06 09:25:27;;;;;;;6.73;5.30;;;28.50;99.90;;;;;;5062993;28;20531;-77
2023/07/06 09:27:58;;;;;;;8.77;6.10;;;28.60;99.90;;;;;;5065052;28;20514;-77
2023/07/06 09:30:33;;;;;;;6.00;5.40;;;28.60;99.90;;;;;;5057484;28;20963;-83
2023/07/06 09:33:06;;;;;;;6.33;5.33;;;28.70;99.90;;;;;;5063419;28;21301;-83
2023/07/06 09:35:35;;;;;;;8.50;5.30;;;28.70;99.90;;;;;;5060600;28;20509;-76
2023/07/06 09:38:06;;;;;;;7.27;5.40;;;28.80;99.90;;;;;;5074490;28;20427;-82
2023/07/06 09:40:32;;;;;;;6.13;5.53;;;28.70;99.90;;;;;;5062033;28;20669;-77
2023/07/06 09:42:58;;;;;;;6.73;5.40;;;28.80;99.90;;;;;;5061167;28;20937;-77
2023/07/06 09:45:26;;;;;;;7.37;6.57;;;28.80;99.90;;;;;;5063477;28;20222;-77
2023/07/06 09:48:05;;;;;;;9.70;6.07;;;29.10;99.90;;;;;;5062869;28;20637;-76
2023/07/06 09:50:47;;;;;;;6.43;5.83;;;29.30;99.90;;;;;;5055038;28;20434;-76
2023/07/06 09:53:24;;;;;;;7.97;6.40;;;29.30;99.90;;;;;;5057222;28;20958;-77
2023/07/06 09:55:50;;;;;;;6.20;5.60;;;29.50;99.90;;;;;;5065753;28;20824;-76
2023/07/06 09:58:24;;;;;;;9.30;5.60;;;29.40;99.90;;;;;;5059513;28;20433;-82
2023/07/06 10:00:57;;;;;;;7.33;6.20;;;29.60;99.90;;;;;;5057937;28;20213;-83
2023/07/06 10:04:16;;;;;;;6.27;5.53;;;29.60;99.90;;;;;;5056368;28;20931;-84
2023/07/06 10:07:16;;;;;;;6.77;6.07;;;29.60;99.90;;;;;;5022736;28;20550;-76
2023/07/06 10:10:14;;;;;;;6.70;5.77;;;29.40;99.90;;;;;;5000963;28;20488;-76
2023/07/06 10:12:51;;;;;;;7.50;5.80;;;29.60;99.90;;;;;;5054665;28;20878;-77
2023/07/06 10:15:43;;;;;;;10.33;5.57;;;29.70;99.90;;;;;;5061023;28;20483;-78
2023/07/06 10:18:22;;;;;;;6.63;6.03;;;29.50;99.90;;;;;;5059490;28;20432;-76
2023/07/06 10:21:20;;;;;;;6.30;5.70;;;29.40;99.90;;;;;;5053597;28;20554;-77
2023/07/06 10:23:57;;;;;;;6.20;5.60;;;29.50;99.90;;;;;;5061117;28;20706;-82
2023/07/06 10:26:34;;;;;;;6.03;5.43;;;29.60;99.90;;;;;;5060965;28;21108;-82
2023/07/06 10:29:09;;;;;;;7.30;5.70;;;29.60;99.90;;;;;;5052585;28;20865;-77
2023/07/06 10:31:42;;;;;;;5.50;5.00;;;29.50;99.90;;;;;;5052513;28;20604;-77
2023/07/06 10:34:15;;;;;;;7.70;5.20;;;29.50;99.90;;;;;;5051045;28;20518;-77
2023/07/06 10:36:42;;;;;;;7.67;5.70;;;29.60;99.90;;;;;;5054568;28;20507;-81
2023/07/06 10:40:00;;;;;;;7.53;5.63;;;29.50;99.90;;;;;;5056503;28;20445;-76
2023/07/06 10:42:32;;;;;;;6.67;6.00;;;29.40;99.90;;;;;;5047365;28;20451;-80
2023/07/06 10:45:02;;;;;;;7.33;6.10;;;29.50;99.90;;;;;;5051101;28;20482;-76
2023/07/06 10:47:37;;;;;;;9.40;7.03;;;29.60;99.90;;;;;;5056388;28;20818;-80
2023/07/06 10:50:14;;;;;;;20.43;18.33;;;29.90;99.90;;;;;;5055153;28;20472;-80
2023/07/06 10:52:50;;;;;;;7.20;5.80;;;30.10;99.90;;;;;;5049496;28;20868;-76
2023/07/06 10:55:18;;;;;;;7.83;6.60;;;30.10;99.90;;;;;;5057003;28;20473;-77
2023/07/06 10:57:51;;;;;;;6.43;5.80;;;30.30;99.90;;;;;;5052919;28;20464;-76
2023/07/06 11:00:20;;;;;;;6.40;5.57;;;30.40;99.90;;;;;;5054577;28;20561;-77
2023/07/06 11:02:46;;;;;;;7.70;5.90;;;30.30;99.90;;;;;;5052451;28;21046;-75
2023/07/06 11:05:30;;;;;;;7.80;5.57;;;30.30;99.90;;;;;;5050681;28;20547;-77
2023/07/06 11:08:00;;;;;;;6.53;5.93;;;30.20;99.90;;;;;;5049413;28;20974;-76
2023/07/06 11:10:48;;;;;;;6.70;6.00;;;30.10;99.90;;;;;;5063453;28;20685;-81
2023/07/06 11:13:17;;;;;;;7.13;5.13;;;30.10;99.90;;;;;;5048966;28;20848;-76
2023/07/06 11:15:56;;;;;;;6.07;5.47;;;29.90;99.90;;;;;;5057046;28;20633;-76
2023/07/06 11:18:21;;;;;;;6.50;5.80;;;30.00;99.90;;;;;;5058449;28;20821;-78
2023/07/06 11:21:12;;;;;;;7.47;5.50;;;30.20;99.90;;;;;;5056383;28;20449;-80
2023/07/06 11:23:45;;;;;;;6.97;6.27;;;30.20;99.90;;;;;;5056150;28;20420;-77
2023/07/06 11:26:37;;;;;;;7.93;6.00;;;29.80;99.90;;;;;;5050138;28;20912;-76
2023/07/06 11:29:07;;;;;;;6.03;5.40;;;29.80;99.90;;;;;;5058711;28;20989;-76
2023/07/06 11:32:09;;;;;;;5.57;5.07;;;29.80;99.90;;;;;;5058653;28;20448;-79
2023/07/06 11:34:47;;;;;;;6.63;5.10;;;29.80;99.90;;;;;;5021188;28;20488;-81
2023/07/06 11:37:15;;;;;;;6.80;5.97;;;29.60;99.90;;;;;;5055074;28;20467;-80
2023/07/06 11:39:44;;;;;;;6.90;6.00;;;29.30;99.90;;;;;;5057341;28;20459;-81
2023/07/06 11:42:33;;;;;;;6.30;5.70;;;29.30;99.90;;;;;;5060798;28;20659;-81
2023/07/06 11:45:12;;;;;;;6.13;5.57;;;29.20;99.90;;;;;;5054683;28;20442;-77
2023/07/06 11:47:40;;;;;;;7.40;6.00;;;29.20;99.90;;;;;;5057775;28;20459;-82
2023/07/06 11:50:13;;;;;;;11.93;10.73;;;29.10;99.90;;;;;;5054981;28;20472;-80
2023/07/06 11:52:44;;;;;;;7.77;6.40;;;29.20;99.90;;;;;;5051152;28;20468;-76
2023/07/06 11:55:29;;;;;;;6.70;6.07;;;29.30;99.90;;;;;;5050391;28;20480;-77
2023/07/06 11:58:28;;;;;;;10.77;9.77;;;29.60;99.90;;;;;;5052515;28;20423;-79
2023/07/06 12:00:52;;;;;;;8.27;6.97;;;29.60;99.90;;;;;;5058288;28;20461;-77
2023/07/06 12:03:20;;;;;;;6.60;5.90;;;29.70;99.90;;;;;;5054096;28;20472;-81
2023/07/06 12:05:48;;;;;;;6.43;5.77;;;29.90;99.90;;;;;;5053963;28;20463;-77
2023/07/06 12:08:35;;;;;;;7.33;6.33;;;30.00;99.90;;;;;;5055862;28;20501;-76
2023/07/06 12:11:14;;;;;;;6.40;5.80;;;30.10;99.90;;;;;;5050472;28;20466;-77
2023/07/06 12:13:43;;;;;;;5.90;5.30;;;29.90;99.90;;;;;;5056374;28;20520;-80
2023/07/06 12:16:18;;;;;;;7.93;6.00;;;29.60;99.90;;;;;;5060931;28;20454;-77
2023/07/06 12:18:45;;;;;;;6.93;5.40;;;29.70;99.90;;;;;;5055717;28;20866;-77
2023/07/06 12:21:20;;;;;;;6.07;5.40;;;29.60;99.90;;;;;;5056202;28;20461;-77
2023/07/06 12:23:46;;;;;;;5.70;5.20;;;29.30;99.90;;;;;;5053273;28;20451;-76
2023/07/06 12:26:13;;;;;;;5.37;4.87;;;29.20;99.90;;;;;;5052330;28;20611;-78
2023/07/06 12:28:44;;;;;;;5.87;5.37;;;29.10;99.90;;;;;;5045211;28;20189;-77
2023/07/06 12:31:10;;;;;;;6.33;4.90;;;29.10;99.90;;;;;;5056714;28;20445;-80
2023/07/06 12:33:36;;;;;;;6.23;5.10;;;29.10;99.90;;;;;;5054769;28;21133;-76
2023/07/06 12:36:03;;;;;;;5.13;4.53;;;29.10;99.90;;;;;;5052173;28;20839;-79
2023/07/06 12:38:29;;;;;;;5.43;4.93;;;29.00;99.90;;;;;;5055414;28;20427;-76
2023/07/06 12:41:21;;;;;;;6.60;5.50;;;29.20;99.90;;;;;;5057052;28;20594;-76
2023/07/06 12:43:49;;;;;;;4.60;4.20;;;29.30;99.90;;;;;;5054357;28;20810;-79
2023/07/06 12:46:21;;;;;;;6.10;4.80;;;29.60;99.90;;;;;;5051007;28;20505;-81
2023/07/06 12:48:53;;;;;;;4.90;4.20;;;29.60;99.90;;;;;;5050477;28;20854;-81
2023/07/06 12:51:23;;;;;;;6.70;4.37;;;29.40;99.90;;;;;;5059143;28;20451;-82
2023/07/06 12:53:53;;;;;;;4.97;4.47;;;29.60;99.90;;;;;;5056714;28;20576;-77